Time;durP1;ratioP1;P1;durP2;ratioP2;P2;SDS_P1;SDS_P2;PMS_P1;PMS_P2;Temp;Humidity;BMP_temperature;BMP_pressure;BME280_temperature;BME280_humidity;BME280_pressure;Samples;Min_cycle;Max_cycle;Signal;HPM_P1;HPM_P2
2023/10/25 00:02:25;;;;;;;1.65;1.23;;;9.20;99.90;;;;;;5075050;28;20381;-66
2023/10/25 00:04:55;;;;;;;2.50;1.98;;;9.10;99.90;;;;;;5074947;28;20052;-66
2023/10/25 00:07:20;;;;;;;1.50;1.40;;;9.20;99.90;;;;;;5073757;28;20029;-66
2023/10/25 00:09:46;;;;;;;1.65;1.52;;;9.10;99.90;;;;;;5075176;28;20082;-66
2023/10/25 00:12:12;;;;;;;1.30;1.17;;;9.10;99.90;;;;;;5075223;28;20115;-66
2023/10/25 00:14:37;;;;;;;1.83;1.50;;;9.20;99.90;;;;;;5075253;28;20062;-68
2023/10/25 00:17:03;;;;;;;1.70;1.48;;;9.10;99.90;;;;;;5074894;28;20044;-66
2023/10/25 00:19:29;;;;;;;2.03;1.30;;;9.10;99.90;;;;;;5075014;28;20468;-66
2023/10/25 00:21:54;;;;;;;1.80;1.38;;;9.10;99.90;;;;;;5075000;28;20078;-66
2023/10/25 00:24:20;;;;;;;1.60;1.27;;;9.10;99.90;;;;;;5073289;28;20041;-66
2023/10/25 00:26:45;;;;;;;2.17;1.48;;;9.10;99.90;;;;;;5074849;28;20469;-66
2023/10/25 00:29:11;;;;;;;1.40;1.23;;;9.10;99.90;;;;;;5074863;28;20452;-66
2023/10/25 00:31:37;;;;;;;1.40;1.30;;;9.10;99.90;;;;;;5074782;28;20033;-66
2023/10/25 00:34:03;;;;;;;1.80;1.20;;;9.00;99.90;;;;;;5074760;28;20124;-66
2023/10/25 00:36:29;;;;;;;2.28;1.40;;;9.00;99.90;;;;;;5074408;28;20102;-66
2023/10/25 00:38:55;;;;;;;1.48;1.38;;;9.60;99.90;;;;;;5073079;28;20089;-66
2023/10/25 00:41:20;;;;;;;1.58;1.30;;;9.10;99.90;;;;;;5074171;28;20447;-66
2023/10/25 00:43:46;;;;;;;2.50;1.48;;;9.10;99.90;;;;;;5074265;28;20044;-66
2023/10/25 00:46:14;;;;;;;1.48;1.10;;;9.00;99.90;;;;;;5074387;28;20527;-66
2023/10/25 00:48:43;;;;;;;1.90;1.55;;;9.00;99.90;;;;;;5072544;28;20051;-66
2023/10/25 00:51:10;;;;;;;1.60;1.30;;;9.00;99.90;;;;;;5074377;28;20039;-66
2023/10/25 00:53:40;;;;;;;1.52;1.42;;;8.90;99.90;;;;;;5074315;28;20370;-66
2023/10/25 00:56:09;;;;;;;1.60;1.40;;;8.90;99.90;;;;;;5074290;28;20148;-66
2023/10/25 00:58:36;;;;;;;1.63;1.23;;;8.90;99.90;;;;;;5073941;28;20078;-66
2023/10/25 01:01:02;;;;;;;1.70;1.40;;;8.90;99.90;;;;;;5074231;28;20504;-68
2023/10/25 01:03:28;;;;;;;1.77;1.35;;;8.90;99.90;;;;;;5072644;28;20048;-66
2023/10/25 01:05:54;;;;;;;1.30;1.20;;;8.80;99.90;;;;;;5074120;28;20489;-67
2023/10/25 01:08:21;;;;;;;1.35;1.10;;;8.80;99.90;;;;;;5074104;28;20040;-67
2023/10/25 01:10:51;;;;;;;2.95;1.98;;;8.80;99.90;;;;;;5073961;28;20036;-67
2023/10/25 01:13:20;;;;;;;1.77;1.37;;;8.80;99.90;;;;;;5073991;28;20037;-67
2023/10/25 01:15:46;;;;;;;1.70;1.33;;;8.80;99.90;;;;;;5073864;28;20392;-67
2023/10/25 01:18:13;;;;;;;1.52;1.00;;;8.80;99.90;;;;;;5073899;28;20040;-67
2023/10/25 01:20:39;;;;;;;1.58;1.45;;;8.80;99.90;;;;;;5073785;28;20082;-67
2023/10/25 01:23:05;;;;;;;1.52;1.42;;;8.80;99.90;;;;;;5055902;28;20048;-67
2023/10/25 01:25:30;;;;;;;1.63;1.20;;;8.80;99.90;;;;;;5073459;28;20134;-66
2023/10/25 01:27:56;;;;;;;1.17;1.13;;;8.70;99.90;;;;;;5073400;28;20072;-66
2023/10/25 01:30:22;;;;;;;2.20;1.40;;;8.70;99.90;;;;;;5073567;28;20066;-66
2023/10/25 01:32:47;;;;;;;1.42;1.33;;;8.70;99.90;;;;;;5073576;28;20108;-66
2023/10/25 01:35:13;;;;;;;2.05;1.42;;;8.70;99.90;;;;;;5073541;28;20043;-66
2023/10/25 01:37:39;;;;;;;2.15;1.30;;;8.70;99.90;;;;;;5073265;28;20035;-66
2023/10/25 01:40:06;;;;;;;5.53;1.45;;;8.70;99.90;;;;;;5073479;28;20040;-67
2023/10/25 01:42:31;;;;;;;2.75;1.65;;;8.70;99.90;;;;;;5073074;28;20408;-66
2023/10/25 01:44:57;;;;;;;2.08;1.52;;;8.70;99.90;;;;;;5073327;28;20066;-67
2023/10/25 01:47:22;;;;;;;1.70;1.35;;;9.40;99.90;;;;;;5071891;28;20076;-67
2023/10/25 01:49:48;;;;;;;1.55;1.45;;;8.60;99.90;;;;;;5071848;28;20476;-66
2023/10/25 01:52:13;;;;;;;2.05;1.85;;;8.70;99.90;;;;;;5073430;28;20095;-66
2023/10/25 01:54:44;;;;;;;1.67;1.38;;;8.60;99.90;;;;;;5073314;28;20040;-66
2023/10/25 01:57:10;;;;;;;1.70;1.50;;;8.60;99.90;;;;;;5073360;28;20063;-67
2023/10/25 01:59:36;;;;;;;2.13;1.42;;;8.60;99.90;;;;;;5072412;28;20037;-67
2023/10/25 02:02:01;;;;;;;2.15;1.63;;;8.60;99.90;;;;;;5073237;28;20392;-67
2023/10/25 02:04:27;;;;;;;1.65;1.40;;;8.60;99.90;;;;;;5073140;28;20476;-67
2023/10/25 02:06:53;;;;;;;1.60;1.35;;;8.60;99.90;;;;;;5073134;28;20079;-67
2023/10/25 02:09:19;;;;;;;1.50;1.40;;;8.60;99.90;;;;;;5073204;28;20437;-67
2023/10/25 02:11:44;;;;;;;1.77;1.55;;;8.60;99.90;;;;;;5073126;28;20443;-67
2023/10/25 02:14:10;;;;;;;2.25;1.65;;;8.80;99.90;;;;;;5055139;28;20045;-67
2023/10/25 02:16:36;;;;;;;1.77;1.45;;;8.50;99.90;;;;;;5073223;28;20037;-68
2023/10/25 02:19:01;;;;;;;2.67;1.50;;;8.50;99.90;;;;;;5073068;28;20071;-67
2023/10/25 02:21:27;;;;;;;1.88;1.45;;;8.50;99.90;;;;;;5073012;28;20032;-67
2023/10/25 02:23:53;;;;;;;1.90;1.70;;;8.80;99.90;;;;;;5072709;28;20043;-67
2023/10/25 02:26:19;;;;;;;2.10;1.55;;;8.80;99.90;;;;;;5072942;28;20173;-68
2023/10/25 02:28:45;;;;;;;1.63;1.50;;;8.50;99.90;;;;;;5072913;28;20072;-67
2023/10/25 02:31:10;;;;;;;1.77;1.38;;;8.50;99.90;;;;;;5072978;28;20125;-67
2023/10/25 02:33:37;;;;;;;2.28;1.70;;;8.40;99.90;;;;;;5071655;28;20072;-67
2023/10/25 02:36:03;;;;;;;4.78;1.88;;;8.70;99.90;;;;;;5073003;28;20415;-66
2023/10/25 02:38:28;;;;;;;2.15;1.35;;;8.40;99.90;;;;;;5072837;28;20052;-66
2023/10/25 02:40:54;;;;;;;1.63;1.52;;;8.50;99.90;;;;;;5072676;28;20480;-66
2023/10/25 02:43:19;;;;;;;1.70;1.58;;;8.40;99.90;;;;;;5072844;28;20128;-66
2023/10/25 02:45:45;;;;;;;1.50;1.40;;;8.40;99.90;;;;;;5072394;28;20043;-66
2023/10/25 02:48:14;;;;;;;2.92;1.80;;;8.40;99.90;;;;;;5072684;28;20033;-66
2023/10/25 02:50:40;;;;;;;1.92;1.60;;;8.40;99.90;;;;;;5072738;28;20032;-66
2023/10/25 02:53:06;;;;;;;1.77;1.40;;;8.40;99.90;;;;;;5072414;28;20072;-66
2023/10/25 02:55:35;;;;;;;5.43;1.90;;;8.40;99.90;;;;;;5072701;28;20083;-66
2023/10/25 02:58:01;;;;;;;2.25;1.60;;;8.40;99.90;;;;;;5071454;28;20044;-66
2023/10/25 03:00:26;;;;;;;2.10;1.90;;;8.40;99.90;;;;;;5072662;28;20040;-66
2023/10/25 03:02:52;;;;;;;1.40;1.30;;;8.60;99.90;;;;;;5072294;28;20037;-66
2023/10/25 03:05:18;;;;;;;2.25;1.60;;;8.40;99.90;;;;;;5072587;28;20041;-66
2023/10/25 03:07:43;;;;;;;1.77;1.67;;;8.40;99.90;;;;;;5072581;28;20532;-66
2023/10/25 03:10:09;;;;;;;2.97;1.65;;;8.40;99.90;;;;;;5073522;28;20500;-66
2023/10/25 03:12:34;;;;;;;1.75;1.65;;;8.30;99.90;;;;;;5074698;28;20040;-70
2023/10/25 03:15:00;;;;;;;2.00;1.80;;;8.30;99.90;;;;;;5076236;28;20084;-66
2023/10/25 03:17:28;;;;;;;1.50;1.40;;;8.30;99.90;;;;;;5076157;28;20033;-66
2023/10/25 03:19:53;;;;;;;2.30;1.42;;;8.30;99.90;;;;;;5075865;28;20041;-66
2023/10/25 03:22:19;;;;;;;1.73;1.60;;;8.30;99.90;;;;;;5076142;28;20036;-66
2023/10/25 03:24:45;;;;;;;2.60;1.50;;;8.30;99.90;;;;;;5075934;28;20480;-66
2023/10/25 03:27:10;;;;;;;3.38;1.73;;;8.30;99.90;;;;;;5076002;28;20033;-67
2023/10/25 03:29:36;;;;;;;1.60;1.50;;;8.30;99.90;;;;;;5075984;28;20106;-67
2023/10/25 03:32:03;;;;;;;1.85;1.67;;;8.30;99.90;;;;;;5074722;28;20083;-67
2023/10/25 03:34:29;;;;;;;1.52;1.42;;;8.30;99.90;;;;;;5075869;28;20489;-67
2023/10/25 03:36:55;;;;;;;1.77;1.67;;;8.30;99.90;;;;;;5074338;28;20044;-67
2023/10/25 03:39:20;;;;;;;1.77;1.60;;;8.30;99.90;;;;;;5074371;28;20127;-67
2023/10/25 03:41:46;;;;;;;1.77;1.67;;;8.20;99.90;;;;;;5075396;28;20056;-67
2023/10/25 03:44:12;;;;;;;1.95;1.60;;;8.20;99.90;;;;;;5075686;28;20107;-67
2023/10/25 03:46:38;;;;;;;1.98;1.67;;;8.20;99.90;;;;;;5075752;28;20072;-65
2023/10/25 03:49:04;;;;;;;2.20;1.75;;;8.20;99.90;;;;;;5075685;28;20436;-65
2023/10/25 03:51:31;;;;;;;2.45;1.40;;;8.20;99.90;;;;;;5075588;28;20032;-66
2023/10/25 03:53:57;;;;;;;2.45;2.10;;;8.70;99.90;;;;;;5075546;28;20384;-66
2023/10/25 03:56:22;;;;;;;1.58;1.45;;;8.20;99.90;;;;;;5075619;28;20499;-67
2023/10/25 03:58:48;;;;;;;1.70;1.60;;;8.20;99.90;;;;;;5075468;28;20083;-66
2023/10/25 04:01:14;;;;;;;2.17;1.80;;;8.20;99.90;;;;;;5075446;28;20392;-67
2023/10/25 04:03:39;;;;;;;1.63;1.52;;;8.20;99.90;;;;;;5075422;28;20048;-67
2023/10/25 04:06:07;;;;;;;1.45;1.25;;;8.20;99.90;;;;;;5075354;28;20076;-66
2023/10/25 04:08:33;;;;;;;3.05;1.75;;;8.30;99.90;;;;;;5075294;28;20037;-66
2023/10/25 04:10:59;;;;;;;1.90;1.58;;;8.10;99.90;;;;;;5075228;28;20511;-66
2023/10/25 04:13:25;;;;;;;2.10;1.63;;;8.10;99.90;;;;;;5075230;28;20381;-66
2023/10/25 04:16:05;;;;;;;2.67;1.55;;;9.00;99.90;;;;;;5075132;28;20043;-66
2023/10/25 04:18:33;;;;;;;1.95;1.77;;;8.20;99.90;;;;;;5074840;28;20032;-65
2023/10/25 04:21:00;;;;;;;1.70;1.50;;;8.20;99.90;;;;;;5074601;28;20068;-65
2023/10/25 04:23:28;;;;;;;1.90;1.80;;;8.20;99.90;;;;;;5074297;28;20044;-65
2023/10/25 04:26:06;;;;;;;2.22;1.83;;;8.20;99.90;;;;;;5074554;28;20047;-66
2023/10/25 04:28:32;;;;;;;1.90;1.50;;;8.20;99.90;;;;;;5074895;28;20598;-65
2023/10/25 04:30:58;;;;;;;1.73;1.50;;;8.90;99.90;;;;;;5074869;28;20108;-65
2023/10/25 04:33:24;;;;;;;1.52;1.40;;;8.20;99.90;;;;;;5073591;28;20542;-65
2023/10/25 04:35:49;;;;;;;1.40;1.30;;;8.10;99.90;;;;;;5074735;28;20032;-65
2023/10/25 04:38:15;;;;;;;2.50;1.83;;;8.10;99.90;;;;;;5074686;28;20115;-66
2023/10/25 04:40:40;;;;;;;1.63;1.40;;;8.10;99.90;;;;;;5074582;28;20485;-65
2023/10/25 04:43:06;;;;;;;2.47;1.73;;;8.10;99.90;;;;;;5074181;28;20139;-66
2023/10/25 04:45:34;;;;;;;2.53;1.48;;;8.10;99.90;;;;;;5072941;28;20455;-66
2023/10/25 04:48:00;;;;;;;1.98;1.70;;;8.10;99.90;;;;;;5074572;28;20063;-66
2023/10/25 04:50:26;;;;;;;2.08;1.60;;;8.00;99.90;;;;;;5074468;28;20473;-66
2023/10/25 04:52:51;;;;;;;2.33;1.77;;;8.30;99.90;;;;;;5074403;28;20071;-66
2023/10/25 04:55:17;;;;;;;1.70;1.50;;;8.00;99.90;;;;;;5074335;28;20067;-65
2023/10/25 04:57:43;;;;;;;2.50;1.58;;;8.30;99.90;;;;;;5074376;28;20044;-67
2023/10/25 05:00:09;;;;;;;1.73;1.52;;;8.00;99.90;;;;;;5073970;28;20477;-67
2023/10/25 05:02:38;;;;;;;2.50;1.63;;;8.00;99.90;;;;;;5073883;28;20076;-66
2023/10/25 05:05:06;;;;;;;1.90;1.52;;;8.00;99.90;;;;;;5074091;28;20072;-66
2023/10/25 05:07:32;;;;;;;2.30;1.65;;;7.90;99.90;;;;;;5073770;28;20051;-66
2023/10/25 05:09:58;;;;;;;2.50;1.50;;;7.90;99.90;;;;;;5072546;28;20029;-66
2023/10/25 05:12:38;;;;;;;2.30;1.60;;;7.90;99.90;;;;;;5074061;28;20094;-66
2023/10/25 05:15:05;;;;;;;1.50;1.40;;;7.90;99.90;;;;;;5072394;28;20059;-66
2023/10/25 05:17:32;;;;;;;1.80;1.50;;;7.90;99.90;;;;;;5073647;28;20072;-66
2023/10/25 05:19:57;;;;;;;1.65;1.35;;;7.90;99.90;;;;;;5072666;28;20036;-66
2023/10/25 05:22:28;;;;;;;2.03;1.52;;;7.90;99.90;;;;;;5073789;28;20067;-66
2023/10/25 05:24:54;;;;;;;1.70;1.40;;;7.80;99.90;;;;;;5073782;28;20119;-66
2023/10/25 05:27:20;;;;;;;1.30;1.20;;;7.80;99.90;;;;;;5073469;28;20037;-67
2023/10/25 05:29:46;;;;;;;2.03;1.50;;;7.80;99.90;;;;;;5073597;28;20047;-66
2023/10/25 05:32:17;;;;;;;2.05;1.30;;;7.80;99.90;;;;;;5073579;28;20032;-66
2023/10/25 05:34:43;;;;;;;1.70;1.60;;;7.80;99.90;;;;;;5073543;28;20386;-68
2023/10/25 05:37:09;;;;;;;1.67;1.25;;;7.70;99.90;;;;;;5072323;28;20051;-67
2023/10/25 05:39:35;;;;;;;1.50;1.30;;;7.70;99.90;;;;;;5073573;28;20044;-67
2023/10/25 05:42:04;;;;;;;3.42;1.77;;;7.70;99.90;;;;;;5073187;28;20052;-68
2023/10/25 05:44:30;;;;;;;2.25;1.65;;;7.70;99.90;;;;;;5072105;28;20514;-68
2023/10/25 05:46:56;;;;;;;1.50;1.20;;;7.70;99.90;;;;;;5073452;28;20548;-68
2023/10/25 05:49:22;;;;;;;2.13;1.48;;;7.70;99.90;;;;;;5073428;28;20067;-68
2023/10/25 05:51:48;;;;;;;1.70;1.30;;;7.60;99.90;;;;;;5071837;28;20037;-67
2023/10/25 05:54:14;;;;;;;1.63;1.38;;;7.60;99.90;;;;;;5073377;28;20568;-67
2023/10/25 05:56:40;;;;;;;2.67;1.50;;;7.60;99.90;;;;;;5088562;28;20072;-66
2023/10/25 05:59:06;;;;;;;2.03;1.58;;;7.60;99.90;;;;;;5073301;28;20365;-65
2023/10/25 06:01:50;;;;;;;2.03;1.70;;;7.60;99.90;;;;;;5073210;28;20028;-65
2023/10/25 06:04:18;;;;;;;2.05;1.65;;;7.60;99.90;;;;;;5071878;28;20044;-65
2023/10/25 06:06:45;;;;;;;1.40;1.30;;;7.60;99.90;;;;;;5071774;28;20115;-65
2023/10/25 06:09:11;;;;;;;1.42;1.30;;;7.60;99.90;;;;;;5073194;28;20541;-65
2023/10/25 06:11:39;;;;;;;1.88;1.67;;;7.50;99.90;;;;;;5073089;28;20369;-65
2023/10/25 06:14:05;;;;;;;1.52;1.42;;;7.60;99.90;;;;;;5073095;28;20048;-66
2023/10/25 06:16:31;;;;;;;2.20;1.40;;;7.60;99.90;;;;;;5073058;28;20119;-64
2023/10/25 06:18:57;;;;;;;1.80;1.42;;;7.60;99.90;;;;;;5072840;28;20141;-65
2023/10/25 06:21:22;;;;;;;1.60;1.50;;;7.50;99.90;;;;;;5072720;28;20040;-65
2023/10/25 06:23:51;;;;;;;2.08;1.63;;;7.50;99.90;;;;;;5072966;28;20473;-65
2023/10/25 06:26:17;;;;;;;2.17;1.73;;;7.60;99.90;;;;;;5072616;28;20041;-66
2023/10/25 06:28:42;;;;;;;1.60;1.50;;;7.70;99.90;;;;;;5072973;28;20123;-65
2023/10/25 06:31:12;;;;;;;1.45;1.35;;;7.50;99.90;;;;;;5072923;28;20540;-65
2023/10/25 06:33:38;;;;;;;3.10;1.92;;;7.60;99.90;;;;;;5072566;28;20040;-64
2023/10/25 06:36:04;;;;;;;2.13;1.70;;;7.60;99.90;;;;;;5072857;28;20056;-68
2023/10/25 06:38:30;;;;;;;1.60;1.45;;;7.60;99.90;;;;;;5071603;28;20477;-65
2023/10/25 06:40:56;;;;;;;3.33;1.65;;;7.50;99.90;;;;;;5072773;28;20046;-66
2023/10/25 06:43:22;;;;;;;1.75;1.60;;;7.60;99.90;;;;;;5072563;28;20044;-67
2023/10/25 06:45:48;;;;;;;1.75;1.65;;;7.60;99.90;;;;;;5089951;28;20044;-65
2023/10/25 06:48:14;;;;;;;1.73;1.60;;;7.50;99.90;;;;;;5076811;28;20385;-66
2023/10/25 06:50:40;;;;;;;1.77;1.63;;;7.60;99.90;;;;;;5076700;28;20036;-65
2023/10/25 06:53:06;;;;;;;2.50;1.90;;;7.60;99.90;;;;;;5076698;28;20036;-78
2023/10/25 06:55:32;;;;;;;1.92;1.35;;;7.60;99.90;;;;;;5075012;28;20063;-66
2023/10/25 06:57:57;;;;;;;1.40;1.30;;;7.70;99.90;;;;;;5076296;28;20044;-66
2023/10/25 07:00:24;;;;;;;1.50;1.40;;;7.60;99.90;;;;;;5075288;28;20044;-66
2023/10/25 07:02:52;;;;;;;1.52;1.30;;;7.60;99.90;;;;;;5076496;28;20488;-65
2023/10/25 07:05:21;;;;;;;1.73;1.60;;;7.70;99.90;;;;;;5076317;28;20412;-65
2023/10/25 07:07:49;;;;;;;2.17;1.65;;;7.70;99.90;;;;;;5075072;28;20040;-66
2023/10/25 07:10:15;;;;;;;1.75;1.65;;;8.00;99.90;;;;;;5076004;28;20069;-67
2023/10/25 07:12:41;;;;;;;1.50;1.33;;;7.80;99.90;;;;;;5075986;28;20039;-67
2023/10/25 07:15:07;;;;;;;1.27;1.15;;;7.70;99.90;;;;;;5075974;28;20041;-65
2023/10/25 07:17:34;;;;;;;1.77;1.10;;;7.80;99.90;;;;;;5076299;28;20044;-65
2023/10/25 07:19:59;;;;;;;2.88;1.58;;;7.80;99.90;;;;;;5076222;28;20544;-65
2023/10/25 07:22:28;;;;;;;1.70;1.42;;;8.10;99.90;;;;;;5076100;28;20075;-65
2023/10/25 07:24:55;;;;;;;1.77;1.38;;;7.80;99.90;;;;;;5075725;28;20053;-65
2023/10/25 07:27:21;;;;;;;1.70;1.60;;;7.90;99.90;;;;;;5076102;28;20498;-66
2023/10/25 07:29:48;;;;;;;1.70;1.40;;;7.90;99.90;;;;;;5075997;28;20368;-65
2023/10/25 07:32:14;;;;;;;2.13;1.35;;;7.90;99.90;;;;;;5075918;28;20079;-65
2023/10/25 07:34:40;;;;;;;2.33;1.45;;;7.90;99.90;;;;;;5075807;28;20045;-65
2023/10/25 07:37:05;;;;;;;1.55;1.45;;;7.90;99.90;;;;;;5075908;28;20492;-65
2023/10/25 07:39:31;;;;;;;1.55;1.45;;;7.90;99.90;;;;;;5075827;28;20047;-65
2023/10/25 07:41:57;;;;;;;2.55;1.50;;;8.00;99.90;;;;;;5075551;28;20066;-65
2023/10/25 07:44:22;;;;;;;2.15;1.60;;;8.10;99.90;;;;;;5075378;28;20480;-65
2023/10/25 07:46:48;;;;;;;1.77;1.63;;;8.00;99.90;;;;;;5075442;28;20033;-65
2023/10/25 07:49:14;;;;;;;1.55;1.30;;;8.00;99.90;;;;;;5075424;28;20036;-65
2023/10/25 07:51:39;;;;;;;1.95;1.40;;;8.10;99.90;;;;;;5075626;28;20070;-65
2023/10/25 07:54:05;;;;;;;1.25;1.15;;;8.10;99.90;;;;;;5075649;28;20036;-71
2023/10/25 07:56:31;;;;;;;3.17;1.70;;;8.20;99.90;;;;;;5074060;28;20445;-66
2023/10/25 07:58:57;;;;;;;1.20;1.10;;;8.20;99.90;;;;;;5075464;28;20046;-68
2023/10/25 08:01:23;;;;;;;1.52;1.27;;;8.30;99.90;;;;;;5075221;28;20053;-66
2023/10/25 08:03:49;;;;;;;2.60;1.90;;;8.30;99.90;;;;;;5075411;28;20490;-66
2023/10/25 08:06:15;;;;;;;1.92;1.65;;;8.40;99.90;;;;;;5073622;28;20047;-66
2023/10/25 08:08:40;;;;;;;1.50;1.40;;;8.40;99.90;;;;;;5075173;28;20033;-66
2023/10/25 08:11:09;;;;;;;2.15;1.42;;;8.40;99.90;;;;;;5075164;28;20179;-66
2023/10/25 08:13:38;;;;;;;1.77;1.25;;;8.50;99.90;;;;;;5075135;28;20492;-66
2023/10/25 08:16:04;;;;;;;1.50;1.30;;;8.80;99.90;;;;;;5075118;28;20048;-66
2023/10/25 08:18:31;;;;;;;1.63;1.38;;;8.60;99.90;;;;;;5074716;28;20043;-66
2023/10/25 08:20:58;;;;;;;1.60;1.50;;;8.60;99.90;;;;;;5074849;28;20044;-66
2023/10/25 08:23:24;;;;;;;2.47;1.80;;;8.60;99.90;;;;;;5074779;28;20045;-66
2023/10/25 08:25:51;;;;;;;1.50;1.30;;;8.80;99.90;;;;;;5074897;28;20426;-66
2023/10/25 08:28:17;;;;;;;1.42;1.33;;;8.80;99.90;;;;;;5075071;28;20033;-66
2023/10/25 08:30:43;;;;;;;1.80;1.40;;;8.90;99.90;;;;;;5074841;28;20058;-66
2023/10/25 08:33:10;;;;;;;1.67;1.23;;;8.90;99.90;;;;;;5073318;28;20081;-67
2023/10/25 08:35:37;;;;;;;1.35;1.20;;;9.00;99.90;;;;;;5074674;28;20070;-66
2023/10/25 08:38:03;;;;;;;1.92;1.48;;;9.00;99.90;;;;;;5074777;28;20045;-68
2023/10/25 08:40:30;;;;;;;1.20;1.10;;;9.00;99.90;;;;;;5074647;28;20504;-67
2023/10/25 08:42:59;;;;;;;1.65;1.25;;;9.10;99.90;;;;;;5074256;28;20135;-66
2023/10/25 08:45:25;;;;;;;1.50;1.40;;;9.10;99.90;;;;;;5074439;28;20071;-66
2023/10/25 08:47:51;;;;;;;1.83;1.52;;;9.20;99.90;;;;;;5074548;28;20037;-66
2023/10/25 08:50:19;;;;;;;1.85;1.67;;;9.20;99.90;;;;;;5074482;28;20040;-66
2023/10/25 08:52:48;;;;;;;2.20;1.60;;;9.20;99.90;;;;;;5074073;28;20041;-66
2023/10/25 08:55:18;;;;;;;2.22;1.60;;;9.30;99.90;;;;;;5074415;28;20554;-66
2023/10/25 08:57:43;;;;;;;1.98;1.50;;;9.30;99.90;;;;;;5074418;28;20044;-66
2023/10/25 09:00:11;;;;;;;1.42;1.30;;;9.30;99.90;;;;;;5074258;28;20037;-66
2023/10/25 09:02:38;;;;;;;2.08;1.70;;;9.30;99.90;;;;;;5073904;28;20037;-66
2023/10/25 09:05:06;;;;;;;2.15;1.38;;;9.40;99.90;;;;;;5074137;28;20090;-66
2023/10/25 09:07:35;;;;;;;1.73;1.40;;;9.40;99.90;;;;;;5073716;28;20447;-66
2023/10/25 09:10:03;;;;;;;1.73;1.30;;;9.40;99.90;;;;;;5074142;28;20055;-66
2023/10/25 09:12:29;;;;;;;1.48;1.38;;;9.50;99.90;;;;;;5074096;28;20116;-66
2023/10/25 09:14:55;;;;;;;1.40;1.30;;;9.80;99.90;;;;;;5073989;28;20093;-66
2023/10/25 09:17:21;;;;;;;1.73;1.58;;;9.50;99.90;;;;;;5073756;28;20036;-66
2023/10/25 09:19:50;;;;;;;2.42;1.52;;;9.90;99.90;;;;;;5073867;28;20036;-66
2023/10/25 09:22:25;;;;;;;1.75;1.65;;;9.70;99.90;;;;;;5073862;28;20043;-66
2023/10/25 09:24:52;;;;;;;1.67;1.58;;;9.70;99.90;;;;;;5073694;28;20480;-66
2023/10/25 09:27:22;;;;;;;2.35;1.67;;;9.80;99.90;;;;;;5073596;28;20052;-66
2023/10/25 09:29:49;;;;;;;1.97;1.53;;;9.80;99.90;;;;;;5073461;28;20041;-66
2023/10/25 09:32:17;;;;;;;1.95;1.80;;;9.90;99.90;;;;;;5073354;28;20040;-66
2023/10/25 09:34:44;;;;;;;3.03;1.90;;;10.00;99.90;;;;;;5073647;28;20476;-66
2023/10/25 09:37:09;;;;;;;2.00;1.40;;;10.10;99.90;;;;;;5073768;28;20075;-66
2023/10/25 09:39:36;;;;;;;1.52;1.40;;;10.20;99.90;;;;;;5073336;28;20079;-66
2023/10/25 09:42:04;;;;;;;2.28;2.08;;;10.30;99.90;;;;;;5073183;28;20066;-66
2023/10/25 09:44:35;;;;;;;1.60;1.50;;;10.50;99.90;;;;;;5073133;28;20094;-66
2023/10/25 09:47:03;;;;;;;1.45;1.35;;;10.60;99.90;;;;;;5073211;28;20044;-66
2023/10/25 09:49:33;;;;;;;1.92;1.55;;;10.70;99.90;;;;;;5073328;28;20504;-66
2023/10/25 09:52:07;;;;;;;1.40;1.30;;;10.80;99.90;;;;;;5072958;28;20071;-66
2023/10/25 09:54:42;;;;;;;1.40;1.30;;;10.90;99.90;;;;;;5073074;28;20051;-66
2023/10/25 09:57:11;;;;;;;1.70;1.60;;;11.00;99.90;;;;;;5073330;28;20431;-66
2023/10/25 09:59:37;;;;;;;2.72;1.60;;;11.20;99.90;;;;;;5072949;28;20085;-67
2023/10/25 10:02:07;;;;;;;1.85;1.58;;;11.30;99.90;;;;;;5073249;28;20115;-66
2023/10/25 10:04:47;;;;;;;1.52;1.42;;;11.50;99.90;;;;;;5073112;28;20040;-67
2023/10/25 10:07:49;;;;;;;1.42;1.10;;;11.60;99.90;;;;;;5072058;28;20086;-67
2023/10/25 10:10:28;;;;;;;3.00;1.38;;;11.70;99.90;;;;;;5071848;28;20484;-66
2023/10/25 10:12:54;;;;;;;1.67;1.40;;;11.70;99.90;;;;;;5073124;28;20123;-67
2023/10/25 10:15:44;;;;;;;2.38;1.02;;;11.80;99.90;;;;;;5073099;28;20458;-68
2023/10/25 10:18:10;;;;;;;1.87;1.50;;;12.40;99.90;;;;;;5072730;28;20041;-67
2023/10/25 10:20:36;;;;;;;2.38;1.63;;;11.80;99.90;;;;;;5072116;28;20032;-68
2023/10/25 10:23:05;;;;;;;2.90;1.60;;;11.90;99.90;;;;;;5073039;28;20400;-67
2023/10/25 10:25:49;;;;;;;1.55;1.10;;;11.90;99.90;;;;;;5072887;28;20051;-67
2023/10/25 10:28:15;;;;;;;0.90;0.90;;;12.10;99.90;;;;;;5072707;28;20499;-68
2023/10/25 10:30:41;;;;;;;1.25;1.10;;;12.00;99.90;;;;;;5072978;28;20037;-67
2023/10/25 10:33:11;;;;;;;1.02;0.90;;;12.00;99.90;;;;;;5072634;28;20090;-67
2023/10/25 10:35:49;;;;;;;1.48;1.38;;;12.00;99.90;;;;;;5072880;28;20040;-68
2023/10/25 10:38:15;;;;;;;0.98;0.98;;;12.00;99.90;;;;;;5072872;28;20147;-68
2023/10/25 10:40:41;;;;;;;1.42;1.13;;;12.00;99.90;;;;;;5071322;28;20123;-67
2023/10/25 10:43:07;;;;;;;1.30;1.13;;;12.00;99.90;;;;;;5072402;28;20122;-67
2023/10/25 10:45:34;;;;;;;1.48;1.35;;;12.00;99.90;;;;;;5072736;28;20076;-68
2023/10/25 10:48:21;;;;;;;1.35;1.20;;;11.90;99.90;;;;;;5072974;28;20048;-66
2023/10/25 10:50:49;;;;;;;0.90;0.90;;;11.90;99.90;;;;;;5072749;28;20454;-67
2023/10/25 10:53:14;;;;;;;1.52;1.40;;;11.90;99.90;;;;;;5072733;28;20040;-67
2023/10/25 10:55:40;;;;;;;2.13;1.20;;;11.90;99.90;;;;;;5071450;28;20094;-67
2023/10/25 10:58:07;;;;;;;0.82;0.82;;;11.90;99.90;;;;;;5071245;28;20048;-67
2023/10/25 11:00:33;;;;;;;1.20;1.10;;;11.90;99.90;;;;;;5072676;28;20037;-67
2023/10/25 11:03:01;;;;;;;1.17;1.00;;;12.00;99.90;;;;;;5072616;28;20076;-67
2023/10/25 11:05:27;;;;;;;0.90;0.90;;;12.00;99.90;;;;;;5072583;28;20044;-67
2023/10/25 11:07:55;;;;;;;1.33;1.10;;;12.10;99.90;;;;;;5072576;28;20503;-67
2023/10/25 11:10:21;;;;;;;0.80;0.80;;;12.10;99.90;;;;;;5072659;28;20037;-67
2023/10/25 11:12:47;;;;;;;0.80;0.73;;;12.70;99.90;;;;;;5072285;28;20090;-67
2023/10/25 11:15:13;;;;;;;1.95;0.98;;;12.10;99.90;;;;;;5072586;28;20395;-67
2023/10/25 11:17:39;;;;;;;0.80;0.80;;;12.10;99.90;;;;;;5072282;28;20101;-67
2023/10/25 11:20:06;;;;;;;0.90;0.68;;;12.40;99.90;;;;;;5072516;28;20040;-67
2023/10/25 11:22:32;;;;;;;1.15;1.05;;;12.00;99.90;;;;;;5070957;28;20112;-67
2023/10/25 11:24:59;;;;;;;1.00;0.80;;;12.00;99.90;;;;;;5072387;28;20594;-67
2023/10/25 11:27:35;;;;;;;1.00;0.90;;;12.00;99.90;;;;;;5072047;28;20484;-67
2023/10/25 11:30:01;;;;;;;1.63;1.17;;;12.00;99.90;;;;;;5072398;28;20044;-67
2023/10/25 11:32:30;;;;;;;2.70;1.10;;;12.50;99.90;;;;;;5073893;28;20511;-67
2023/10/25 11:34:59;;;;;;;1.98;1.20;;;12.00;99.90;;;;;;5076036;28;20036;-68
2023/10/25 11:37:39;;;;;;;1.02;0.90;;;12.00;99.90;;;;;;5075914;28;20047;-67
2023/10/25 11:40:06;;;;;;;0.68;0.65;;;12.00;99.90;;;;;;5075888;28;20396;-67
2023/10/25 11:42:33;;;;;;;1.30;0.85;;;12.00;99.90;;;;;;5075417;28;20407;-67
2023/10/25 11:44:59;;;;;;;0.77;0.77;;;12.30;99.90;;;;;;5075688;28;20546;-67
2023/10/25 11:47:26;;;;;;;1.40;1.20;;;11.90;99.90;;;;;;5075519;28;20040;-67
2023/10/25 11:49:53;;;;;;;1.48;0.90;;;12.00;99.90;;;;;;5075424;28;20442;-66
2023/10/25 11:52:26;;;;;;;2.20;1.35;;;12.30;99.90;;;;;;5075671;28;20041;-67
2023/10/25 11:54:56;;;;;;;0.70;0.70;;;12.00;99.90;;;;;;5074690;28;20044;-67
2023/10/25 11:57:27;;;;;;;1.65;1.10;;;11.90;99.90;;;;;;5075237;28;20032;-67
2023/10/25 11:59:52;;;;;;;;;;;12.00;99.90;;;;;;5076027;28;20046;-66
2023/10/25 12:02:20;;;;;;;1.00;0.82;;;11.90;99.90;;;;;;5075495;28;20334;-66
2023/10/25 12:04:46;;;;;;;1.45;1.00;;;11.90;99.90;;;;;;5075335;28;20469;-66
2023/10/25 12:07:12;;;;;;;1.60;0.95;;;11.90;99.90;;;;;;5075390;28;20044;-66
2023/10/25 12:09:39;;;;;;;1.00;0.90;;;11.90;99.90;;;;;;5075392;28;20085;-66
2023/10/25 12:12:05;;;;;;;1.20;1.10;;;11.90;99.90;;;;;;5075200;28;20064;-67
2023/10/25 12:14:31;;;;;;;0.93;0.70;;;11.90;99.90;;;;;;5075205;28;20029;-66
2023/10/25 12:16:58;;;;;;;4.10;1.15;;;11.90;99.90;;;;;;5075190;28;20120;-66
2023/10/25 12:19:24;;;;;;;1.35;0.88;;;11.80;99.90;;;;;;5075138;28;20040;-66
2023/10/25 12:21:56;;;;;;;1.10;1.00;;;11.80;99.90;;;;;;5074833;28;20040;-66
2023/10/25 12:24:27;;;;;;;2.90;1.20;;;11.80;99.90;;;;;;5075061;28;20068;-67
2023/10/25 12:26:53;;;;;;;1.20;0.80;;;11.80;99.90;;;;;;5074971;28;20493;-66
2023/10/25 12:29:20;;;;;;;0.60;0.60;;;11.80;99.90;;;;;;5074924;28;20036;-66
2023/10/25 12:31:46;;;;;;;1.20;1.02;;;11.60;99.90;;;;;;5074905;28;20366;-66
2023/10/25 12:34:12;;;;;;;1.45;0.73;;;11.70;99.90;;;;;;5074865;28;20133;-66
2023/10/25 12:36:38;;;;;;;1.13;0.80;;;11.80;99.90;;;;;;5074765;28;20036;-66
2023/10/25 12:39:04;;;;;;;0.70;0.70;;;11.70;99.90;;;;;;5074688;28;20503;-66
2023/10/25 12:41:29;;;;;;;1.27;1.00;;;11.70;99.90;;;;;;5074457;28;20059;-66
2023/10/25 12:43:56;;;;;;;1.08;0.88;;;11.70;99.90;;;;;;5072370;28;20123;-66
2023/10/25 12:46:21;;;;;;;1.17;1.00;;;11.60;99.90;;;;;;5074530;28;20485;-66
2023/10/25 12:48:47;;;;;;;1.45;0.85;;;11.60;99.90;;;;;;5074583;28;20047;-66
2023/10/25 12:51:13;;;;;;;0.80;0.80;;;11.60;99.90;;;;;;5074737;28;20075;-66
2023/10/25 12:53:38;;;;;;;2.05;0.80;;;11.60;99.90;;;;;;5074434;28;20387;-66
2023/10/25 12:56:04;;;;;;;0.85;0.73;;;11.50;99.90;;;;;;5074407;28;20040;-66